sensor_id;sensor_type;location;lat;lon;timestamp;P1;durP1;ratioP1;P2;durP2;ratioP2
35110;SDS011;21290;50.158;8.658;2024-01-30T05:39:15;32.20;;;20.55;;
35110;SDS011;21290;50.158;8.658;2024-01-30T05:41:51;35.15;;;21.98;;
35110;SDS011;21290;50.158;8.658;2024-01-30T05:44:17;31.10;;;21.20;;
35110;SDS011;21290;50.158;8.658;2024-01-30T05:46:47;29.45;;;20.63;;
35110;SDS011;21290;50.158;8.658;2024-01-30T05:52:17;30.58;;;18.52;;
35110;SDS011;21290;50.158;8.658;2024-01-30T05:54:59;31.33;;;19.60;;
35110;SDS011;21290;50.158;8.658;2024-01-30T05:57:29;28.95;;;19.40;;
35110;SDS011;21290;50.158;8.658;2024-01-30T06:00:01;31.38;;;18.95;;
35110;SDS011;21290;50.158;8.658;2024-01-30T06:02:47;30.58;;;19.13;;
35110;SDS011;21290;50.158;8.658;2024-01-30T06:05:49;35.38;;;18.88;;
35110;SDS011;21290;50.158;8.658;2024-01-30T06:08:17;29.00;;;18.60;;
35110;SDS011;21290;50.158;8.658;2024-01-30T06:10:45;31.90;;;17.23;;
35110;SDS011;21290;50.158;8.658;2024-01-30T06:13:12;29.58;;;16.58;;
35110;SDS011;21290;50.158;8.658;2024-01-30T06:15:43;28.25;;;18.00;;
35110;SDS011;21290;50.158;8.658;2024-01-30T06:18:14;24.63;;;16.63;;
35110;SDS011;21290;50.158;8.658;2024-01-30T06:20:56;28.58;;;16.70;;
35110;SDS011;21290;50.158;8.658;2024-01-30T06:23:27;31.75;;;17.83;;
35110;SDS011;21290;50.158;8.658;2024-01-30T06:25:54;26.50;;;17.60;;
35110;SDS011;21290;50.158;8.658;2024-01-30T06:28:37;30.27;;;18.70;;
35110;SDS011;21290;50.158;8.658;2024-01-30T06:31:04;25.42;;;17.55;;
35110;SDS011;21290;50.158;8.658;2024-01-30T06:33:34;28.00;;;17.55;;
35110;SDS011;21290;50.158;8.658;2024-01-30T07:16:29;34.85;;;21.10;;
35110;SDS011;21290;50.158;8.658;2024-01-30T07:19:04;32.63;;;20.98;;
35110;SDS011;21290;50.158;8.658;2024-01-30T07:21:31;35.58;;;21.02;;
35110;SDS011;21290;50.158;8.658;2024-01-30T07:23:58;36.67;;;22.23;;
35110;SDS011;21290;50.158;8.658;2024-01-30T07:26:25;43.85;;;22.35;;
35110;SDS011;21290;50.158;8.658;2024-01-30T07:28:52;35.67;;;22.35;;
35110;SDS011;21290;50.158;8.658;2024-01-30T07:31:19;35.22;;;22.33;;
35110;SDS011;21290;50.158;8.658;2024-01-30T07:33:49;30.58;;;19.52;;
35110;SDS011;21290;50.158;8.658;2024-01-30T07:36:17;29.23;;;20.08;;
35110;SDS011;21290;50.158;8.658;2024-01-30T07:42:45;33.70;;;19.88;;
35110;SDS011;21290;50.158;8.658;2024-01-30T07:52:44;29.35;;;18.33;;
35110;SDS011;21290;50.158;8.658;2024-01-30T07:55:12;33.03;;;18.50;;
35110;SDS011;21290;50.158;8.658;2024-01-30T07:57:48;32.17;;;18.52;;
35110;SDS011;21290;50.158;8.658;2024-01-30T08:00:20;33.42;;;17.55;;
35110;SDS011;21290;50.158;8.658;2024-01-30T08:07:27;27.60;;;17.02;;
35110;SDS011;21290;50.158;8.658;2024-01-30T08:13:04;30.00;;;16.23;;
35110;SDS011;21290;50.158;8.658;2024-01-30T08:15:37;29.17;;;16.23;;
35110;SDS011;21290;50.158;8.658;2024-01-30T08:25:24;29.42;;;17.08;;
35110;SDS011;21290;50.158;8.658;2024-01-30T08:31:55;29.08;;;16.85;;
35110;SDS011;21290;50.158;8.658;2024-01-30T08:34:52;24.90;;;16.55;;
35110;SDS011;21290;50.158;8.658;2024-01-30T08:37:49;30.80;;;16.77;;
35110;SDS011;21290;50.158;8.658;2024-01-30T08:40:41;31.00;;;18.33;;
35110;SDS011;21290;50.158;8.658;2024-01-30T08:43:16;28.80;;;16.98;;
35110;SDS011;21290;50.158;8.658;2024-01-30T08:45:54;29.92;;;17.63;;
35110;SDS011;21290;50.158;8.658;2024-01-30T08:48:42;24.33;;;17.20;;
35110;SDS011;21290;50.158;8.658;2024-01-30T08:59:31;24.00;;;16.17;;
35110;SDS011;21290;50.158;8.658;2024-01-30T09:01:40;23.05;;;15.95;;
35110;SDS011;21290;50.158;8.658;2024-01-30T09:04:23;33.70;;;18.08;;
35110;SDS011;21290;50.158;8.658;2024-01-30T09:06:51;24.83;;;16.23;;
35110;SDS011;21290;50.158;8.658;2024-01-30T09:09:21;26.23;;;17.08;;
35110;SDS011;21290;50.158;8.658;2024-01-30T09:11:52;22.73;;;16.35;;
35110;SDS011;21290;50.158;8.658;2024-01-30T09:14:39;21.50;;;13.07;;
35110;SDS011;21290;50.158;8.658;2024-01-30T09:17:09;25.00;;;16.10;;
35110;SDS011;21290;50.158;8.658;2024-01-30T09:19:37;27.13;;;17.08;;
35110;SDS011;21290;50.158;8.658;2024-01-30T09:25:24;28.33;;;17.98;;
35110;SDS011;21290;50.158;8.658;2024-01-30T09:27:57;25.33;;;17.83;;
35110;SDS011;21290;50.158;8.658;2024-01-30T09:30:38;25.73;;;17.13;;
35110;SDS011;21290;50.158;8.658;2024-01-30T09:33:13;26.52;;;17.17;;
35110;SDS011;21290;50.158;8.658;2024-01-30T09:35:58;24.17;;;17.42;;
35110;SDS011;21290;50.158;8.658;2024-01-30T09:38:45;32.05;;;17.85;;
35110;SDS011;21290;50.158;8.658;2024-01-30T09:41:18;26.33;;;17.50;;
35110;SDS011;21290;50.158;8.658;2024-01-30T09:43:47;34.13;;;18.13;;
35110;SDS011;21290;50.158;8.658;2024-01-30T09:46:16;25.88;;;17.08;;
35110;SDS011;21290;50.158;8.658;2024-01-30T09:49:01;26.80;;;16.98;;
35110;SDS011;21290;50.158;8.658;2024-01-30T09:55:11;26.13;;;17.83;;
35110;SDS011;21290;50.158;8.658;2024-01-30T09:57:41;28.77;;;17.63;;
35110;SDS011;21290;50.158;8.658;2024-01-30T10:00:16;27.20;;;17.90;;
35110;SDS011;21290;50.158;8.658;2024-01-30T10:02:44;24.48;;;16.55;;
35110;SDS011;21290;50.158;8.658;2024-01-30T10:05:13;24.48;;;18.30;;
35110;SDS011;21290;50.158;8.658;2024-01-30T10:07:52;23.33;;;16.90;;
35110;SDS011;21290;50.158;8.658;2024-01-30T10:10:22;24.23;;;16.67;;
35110;SDS011;21290;50.158;8.658;2024-01-30T10:12:50;31.90;;;17.33;;
35110;SDS011;21290;50.158;8.658;2024-01-30T10:15:17;24.48;;;17.92;;
35110;SDS011;21290;50.158;8.658;2024-01-30T10:17:46;26.65;;;17.30;;
35110;SDS011;21290;50.158;8.658;2024-01-30T10:20:13;26.40;;;17.40;;
35110;SDS011;21290;50.158;8.658;2024-01-30T10:22:40;24.02;;;17.17;;
35110;SDS011;21290;50.158;8.658;2024-01-30T10:25:12;25.10;;;17.65;;
35110;SDS011;21290;50.158;8.658;2024-01-30T10:27:39;23.58;;;16.45;;
35110;SDS011;21290;50.158;8.658;2024-01-30T10:30:08;27.77;;;17.55;;
35110;SDS011;21290;50.158;8.658;2024-01-30T10:32:38;30.55;;;18.05;;
35110;SDS011;21290;50.158;8.658;2024-01-30T10:35:24;26.67;;;17.17;;
35110;SDS011;21290;50.158;8.658;2024-01-30T10:37:58;27.65;;;16.70;;
35110;SDS011;21290;50.158;8.658;2024-01-30T10:40:31;26.83;;;17.48;;
35110;SDS011;21290;50.158;8.658;2024-01-30T10:43:00;25.27;;;16.95;;
35110;SDS011;21290;50.158;8.658;2024-01-30T10:45:30;23.27;;;16.88;;
35110;SDS011;21290;50.158;8.658;2024-01-30T10:47:59;24.13;;;16.92;;
35110;SDS011;21290;50.158;8.658;2024-01-30T10:50:31;29.02;;;17.27;;
35110;SDS011;21290;50.158;8.658;2024-01-30T10:53:12;21.67;;;17.10;;
35110;SDS011;21290;50.158;8.658;2024-01-30T10:55:57;22.35;;;17.40;;
35110;SDS011;21290;50.158;8.658;2024-01-30T10:58:26;30.25;;;17.45;;
35110;SDS011;21290;50.158;8.658;2024-01-30T11:00:54;24.17;;;16.50;;
35110;SDS011;21290;50.158;8.658;2024-01-30T11:03:22;24.40;;;17.17;;
35110;SDS011;21290;50.158;8.658;2024-01-30T11:05:53;24.85;;;17.20;;
35110;SDS011;21290;50.158;8.658;2024-01-30T11:08:35;23.05;;;15.55;;
35110;SDS011;21290;50.158;8.658;2024-01-30T11:11:02;26.75;;;16.83;;
35110;SDS011;21290;50.158;8.658;2024-01-30T11:13:35;26.20;;;16.02;;
35110;SDS011;21290;50.158;8.658;2024-01-30T11:16:02;20.73;;;15.48;;
35110;SDS011;21290;50.158;8.658;2024-01-30T11:18:33;20.67;;;15.43;;
35110;SDS011;21290;50.158;8.658;2024-01-30T11:21:04;24.23;;;16.05;;
35110;SDS011;21290;50.158;8.658;2024-01-30T11:23:33;26.70;;;16.10;;
35110;SDS011;21290;50.158;8.658;2024-01-30T11:26:01;21.23;;;15.40;;
35110;SDS011;21290;50.158;8.658;2024-01-30T11:28:33;22.75;;;15.48;;
35110;SDS011;21290;50.158;8.658;2024-01-30T11:31:04;26.05;;;14.93;;
35110;SDS011;21290;50.158;8.658;2024-01-30T11:33:33;21.67;;;15.18;;
35110;SDS011;21290;50.158;8.658;2024-01-30T11:36:00;26.15;;;15.48;;
35110;SDS011;21290;50.158;8.658;2024-01-30T11:38:28;23.90;;;15.00;;
35110;SDS011;21290;50.158;8.658;2024-01-30T11:40:56;23.27;;;15.25;;
35110;SDS011;21290;50.158;8.658;2024-01-30T11:43:23;23.70;;;15.63;;
35110;SDS011;21290;50.158;8.658;2024-01-30T11:45:51;24.30;;;14.70;;
35110;SDS011;21290;50.158;8.658;2024-01-30T11:48:22;24.20;;;15.80;;
35110;SDS011;21290;50.158;8.658;2024-01-30T11:51:08;19.90;;;15.30;;
35110;SDS011;21290;50.158;8.658;2024-01-30T11:58:13;25.95;;;15.32;;
35110;SDS011;21290;50.158;8.658;2024-01-30T12:00:43;18.98;;;14.07;;
35110;SDS011;21290;50.158;8.658;2024-01-30T12:03:41;20.92;;;14.93;;
35110;SDS011;21290;50.158;8.658;2024-01-30T12:06:27;21.25;;;14.05;;
35110;SDS011;21290;50.158;8.658;2024-01-30T12:09:16;28.17;;;14.88;;
35110;SDS011;21290;50.158;8.658;2024-01-30T12:12:10;20.75;;;15.35;;
35110;SDS011;21290;50.158;8.658;2024-01-30T12:14:39;24.15;;;15.60;;
35110;SDS011;21290;50.158;8.658;2024-01-30T12:17:08;27.17;;;15.45;;
35110;SDS011;21290;50.158;8.658;2024-01-30T12:23:25;18.73;;;14.50;;
35110;SDS011;21290;50.158;8.658;2024-01-30T12:26:24;21.55;;;14.70;;
35110;SDS011;21290;50.158;8.658;2024-01-30T12:29:55;27.98;;;14.05;;
35110;SDS011;21290;50.158;8.658;2024-01-30T12:33:18;23.50;;;14.63;;
35110;SDS011;21290;50.158;8.658;2024-01-30T12:36:20;20.67;;;14.10;;
35110;SDS011;21290;50.158;8.658;2024-01-30T12:42:57;19.98;;;14.73;;
35110;SDS011;21290;50.158;8.658;2024-01-30T12:49:03;21.70;;;14.68;;
35110;SDS011;21290;50.158;8.658;2024-01-30T12:51:35;25.85;;;16.83;;
35110;SDS011;21290;50.158;8.658;2024-01-30T12:54:07;21.02;;;15.02;;
35110;SDS011;21290;50.158;8.658;2024-01-30T12:56:50;29.30;;;14.52;;
35110;SDS011;21290;50.158;8.658;2024-01-30T12:59:47;26.00;;;14.90;;
35110;SDS011;21290;50.158;8.658;2024-01-30T13:02:21;17.90;;;14.15;;
35110;SDS011;21290;50.158;8.658;2024-01-30T13:04:49;21.98;;;14.65;;
35110;SDS011;21290;50.158;8.658;2024-01-30T13:07:16;26.13;;;14.13;;
35110;SDS011;21290;50.158;8.658;2024-01-30T13:09:44;25.45;;;14.98;;
35110;SDS011;21290;50.158;8.658;2024-01-30T13:12:12;19.90;;;13.57;;
35110;SDS011;21290;50.158;8.658;2024-01-30T13:14:39;20.33;;;13.55;;
35110;SDS011;21290;50.158;8.658;2024-01-30T13:17:06;23.15;;;13.93;;
35110;SDS011;21290;50.158;8.658;2024-01-30T13:19:34;22.40;;;13.38;;
35110;SDS011;21290;50.158;8.658;2024-01-30T13:22:01;23.00;;;14.07;;
35110;SDS011;21290;50.158;8.658;2024-01-30T13:24:32;19.63;;;13.90;;
35110;SDS011;21290;50.158;8.658;2024-01-30T13:26:59;22.30;;;13.88;;
35110;SDS011;21290;50.158;8.658;2024-01-30T13:29:29;18.25;;;12.90;;
35110;SDS011;21290;50.158;8.658;2024-01-30T13:31:57;18.90;;;13.35;;
35110;SDS011;21290;50.158;8.658;2024-01-30T13:34:24;22.38;;;13.02;;
35110;SDS011;21290;50.158;8.658;2024-01-30T13:36:54;18.38;;;14.20;;
35110;SDS011;21290;50.158;8.658;2024-01-30T13:39:27;19.90;;;13.23;;
35110;SDS011;21290;50.158;8.658;2024-01-30T13:42:05;19.33;;;14.18;;
35110;SDS011;21290;50.158;8.658;2024-01-30T13:44:31;29.77;;;14.77;;
35110;SDS011;21290;50.158;8.658;2024-01-30T13:46:58;18.45;;;13.80;;
35110;SDS011;21290;50.158;8.658;2024-01-30T13:49:25;22.58;;;14.27;;
35110;SDS011;21290;50.158;8.658;2024-01-30T13:51:55;19.67;;;14.20;;
35110;SDS011;21290;50.158;8.658;2024-01-30T13:54:23;21.67;;;15.10;;
35110;SDS011;21290;50.158;8.658;2024-01-30T13:56:50;19.13;;;15.07;;
35110;SDS011;21290;50.158;8.658;2024-01-30T14:04:40;19.02;;;14.15;;
35110;SDS011;21290;50.158;8.658;2024-01-30T14:07:07;19.30;;;14.40;;
35110;SDS011;21290;50.158;8.658;2024-01-30T14:09:35;20.50;;;14.75;;
35110;SDS011;21290;50.158;8.658;2024-01-30T14:12:02;19.65;;;14.10;;
35110;SDS011;21290;50.158;8.658;2024-01-30T14:14:29;21.63;;;15.10;;
35110;SDS011;21290;50.158;8.658;2024-01-30T14:16:56;21.58;;;15.23;;
35110;SDS011;21290;50.158;8.658;2024-01-30T14:19:24;20.90;;;15.52;;
35110;SDS011;21290;50.158;8.658;2024-01-30T14:21:51;21.52;;;15.40;;
35110;SDS011;21290;50.158;8.658;2024-01-30T14:24:18;22.95;;;14.52;;
35110;SDS011;21290;50.158;8.658;2024-01-30T14:26:46;21.40;;;15.15;;
35110;SDS011;21290;50.158;8.658;2024-01-30T14:29:13;21.88;;;16.25;;
35110;SDS011;21290;50.158;8.658;2024-01-30T14:31:40;28.30;;;15.13;;
35110;SDS011;21290;50.158;8.658;2024-01-30T14:34:07;21.95;;;15.52;;
35110;SDS011;21290;50.158;8.658;2024-01-30T14:36:35;21.50;;;15.13;;
35110;SDS011;21290;50.158;8.658;2024-01-30T14:39:10;22.20;;;15.80;;
35110;SDS011;21290;50.158;8.658;2024-01-30T14:41:40;23.92;;;15.90;;
35110;SDS011;21290;50.158;8.658;2024-01-30T14:44:08;23.92;;;16.27;;
35110;SDS011;21290;50.158;8.658;2024-01-30T14:46:35;22.23;;;14.98;;
35110;SDS011;21290;50.158;8.658;2024-01-30T14:49:04;24.27;;;15.38;;
35110;SDS011;21290;50.158;8.658;2024-01-30T14:51:33;29.60;;;16.33;;
35110;SDS011;21290;50.158;8.658;2024-01-30T14:54:03;25.10;;;16.40;;
35110;SDS011;21290;50.158;8.658;2024-01-30T14:56:46;23.02;;;14.98;;
35110;SDS011;21290;50.158;8.658;2024-01-30T14:59:13;21.98;;;15.75;;
35110;SDS011;21290;50.158;8.658;2024-01-30T15:01:40;27.80;;;16.23;;
35110;SDS011;21290;50.158;8.658;2024-01-30T15:04:08;25.90;;;16.67;;
35110;SDS011;21290;50.158;8.658;2024-01-30T15:06:35;25.08;;;17.13;;
35110;SDS011;21290;50.158;8.658;2024-01-30T15:09:04;26.35;;;16.08;;
35110;SDS011;21290;50.158;8.658;2024-01-30T15:11:31;26.52;;;16.23;;
35110;SDS011;21290;50.158;8.658;2024-01-30T15:14:00;24.70;;;16.77;;
35110;SDS011;21290;50.158;8.658;2024-01-30T15:16:27;24.95;;;16.98;;
35110;SDS011;21290;50.158;8.658;2024-01-30T15:18:56;26.20;;;17.08;;
35110;SDS011;21290;50.158;8.658;2024-01-30T15:21:23;28.25;;;17.15;;
35110;SDS011;21290;50.158;8.658;2024-01-30T15:23:52;24.75;;;16.38;;
35110;SDS011;21290;50.158;8.658;2024-01-30T15:26:24;23.83;;;17.10;;
35110;SDS011;21290;50.158;8.658;2024-01-30T15:28:56;27.92;;;17.25;;
35110;SDS011;21290;50.158;8.658;2024-01-30T15:31:23;26.73;;;17.45;;
35110;SDS011;21290;50.158;8.658;2024-01-30T15:33:51;24.10;;;16.95;;
35110;SDS011;21290;50.158;8.658;2024-01-30T15:36:18;28.40;;;17.23;;
35110;SDS011;21290;50.158;8.658;2024-01-30T15:38:45;25.95;;;17.52;;
35110;SDS011;21290;50.158;8.658;2024-01-30T15:41:12;29.00;;;17.27;;
35110;SDS011;21290;50.158;8.658;2024-01-30T15:43:39;28.98;;;17.35;;
35110;SDS011;21290;50.158;8.658;2024-01-30T15:46:06;24.02;;;16.88;;
35110;SDS011;21290;50.158;8.658;2024-01-30T15:48:33;25.75;;;18.00;;
35110;SDS011;21290;50.158;8.658;2024-01-30T15:51:04;23.05;;;17.27;;
35110;SDS011;21290;50.158;8.658;2024-01-30T15:53:34;25.20;;;17.75;;
35110;SDS011;21290;50.158;8.658;2024-01-30T16:04:14;24.85;;;17.73;;
35110;SDS011;21290;50.158;8.658;2024-01-30T16:06:56;26.13;;;17.17;;
35110;SDS011;21290;50.158;8.658;2024-01-30T16:09:26;23.73;;;17.88;;
35110;SDS011;21290;50.158;8.658;2024-01-30T16:14:28;22.45;;;16.40;;
35110;SDS011;21290;50.158;8.658;2024-01-30T16:17:27;23.88;;;17.05;;
35110;SDS011;21290;50.158;8.658;2024-01-30T16:20:01;24.88;;;17.08;;
35110;SDS011;21290;50.158;8.658;2024-01-30T16:22:42;24.38;;;17.17;;
35110;SDS011;21290;50.158;8.658;2024-01-30T16:25:14;28.92;;;17.63;;
35110;SDS011;21290;50.158;8.658;2024-01-30T16:27:59;22.92;;;17.15;;
35110;SDS011;21290;50.158;8.658;2024-01-30T16:34:34;23.13;;;16.63;;
35110;SDS011;21290;50.158;8.658;2024-01-30T16:37:09;24.95;;;16.95;;
35110;SDS011;21290;50.158;8.658;2024-01-30T16:39:35;24.52;;;16.70;;
35110;SDS011;21290;50.158;8.658;2024-01-30T16:42:02;26.27;;;17.95;;
35110;SDS011;21290;50.158;8.658;2024-01-30T16:44:29;22.00;;;17.10;;
35110;SDS011;21290;50.158;8.658;2024-01-30T16:46:57;25.65;;;18.05;;
35110;SDS011;21290;50.158;8.658;2024-01-30T16:49:23;25.90;;;17.30;;
35110;SDS011;21290;50.158;8.658;2024-01-30T16:51:50;25.42;;;17.40;;
35110;SDS011;21290;50.158;8.658;2024-01-30T16:54:21;24.90;;;17.15;;
35110;SDS011;21290;50.158;8.658;2024-01-30T16:56:48;23.20;;;16.50;;
35110;SDS011;21290;50.158;8.658;2024-01-30T16:59:25;25.85;;;16.27;;
35110;SDS011;21290;50.158;8.658;2024-01-30T17:02:22;24.85;;;16.40;;
35110;SDS011;21290;50.158;8.658;2024-01-30T17:04:49;29.75;;;16.83;;
35110;SDS011;21290;50.158;8.658;2024-01-30T17:11:51;23.00;;;16.25;;
35110;SDS011;21290;50.158;8.658;2024-01-30T17:14:47;28.52;;;16.15;;
35110;SDS011;21290;50.158;8.658;2024-01-30T17:20:09;25.63;;;16.73;;
35110;SDS011;21290;50.158;8.658;2024-01-30T17:22:51;22.50;;;16.38;;
35110;SDS011;21290;50.158;8.658;2024-01-30T17:26:00;24.88;;;17.38;;
35110;SDS011;21290;50.158;8.658;2024-01-30T17:29:22;23.25;;;15.90;;
35110;SDS011;21290;50.158;8.658;2024-01-30T17:35:29;27.42;;;16.70;;
35110;SDS011;21290;50.158;8.658;2024-01-30T17:46:08;25.63;;;15.93;;
35110;SDS011;21290;50.158;8.658;2024-01-30T17:48:35;22.48;;;14.73;;
35110;SDS011;21290;50.158;8.658;2024-01-30T17:51:04;25.05;;;17.85;;
35110;SDS011;21290;50.158;8.658;2024-01-30T17:53:31;21.67;;;16.15;;
35110;SDS011;21290;50.158;8.658;2024-01-30T17:56:08;23.60;;;15.80;;
35110;SDS011;21290;50.158;8.658;2024-01-30T17:58:49;23.10;;;15.23;;
35110;SDS011;21290;50.158;8.658;2024-01-30T18:01:16;21.38;;;15.70;;
35110;SDS011;21290;50.158;8.658;2024-01-30T18:03:43;23.45;;;16.63;;
35110;SDS011;21290;50.158;8.658;2024-01-30T18:13:57;24.52;;;16.05;;
35110;SDS011;21290;50.158;8.658;2024-01-30T18:37:36;21.98;;;15.48;;
35110;SDS011;21290;50.158;8.658;2024-01-30T18:40:03;23.92;;;16.20;;
35110;SDS011;21290;50.158;8.658;2024-01-30T18:42:31;21.42;;;15.50;;
35110;SDS011;21290;50.158;8.658;2024-01-30T18:44:58;18.25;;;15.02;;
35110;SDS011;21290;50.158;8.658;2024-01-30T18:47:25;25.38;;;15.60;;
35110;SDS011;21290;50.158;8.658;2024-01-30T18:49:52;21.23;;;15.90;;
35110;SDS011;21290;50.158;8.658;2024-01-30T18:52:19;19.75;;;14.27;;
35110;SDS011;21290;50.158;8.658;2024-01-30T18:54:47;22.70;;;16.60;;
35110;SDS011;21290;50.158;8.658;2024-01-30T18:57:14;26.23;;;15.85;;
35110;SDS011;21290;50.158;8.658;2024-01-30T18:59:42;25.63;;;16.75;;
35110;SDS011;21290;50.158;8.658;2024-01-30T19:02:09;21.83;;;15.48;;
35110;SDS011;21290;50.158;8.658;2024-01-30T19:04:36;24.48;;;16.00;;
35110;SDS011;21290;50.158;8.658;2024-01-30T19:07:04;24.65;;;15.77;;
35110;SDS011;21290;50.158;8.658;2024-01-30T19:09:46;21.83;;;15.90;;
35110;SDS011;21290;50.158;8.658;2024-01-30T19:12:34;21.30;;;15.10;;
35110;SDS011;21290;50.158;8.658;2024-01-30T19:15:11;22.52;;;15.32;;
35110;SDS011;21290;50.158;8.658;2024-01-30T19:17:45;23.17;;;16.25;;
35110;SDS011;21290;50.158;8.658;2024-01-30T19:20:18;21.58;;;15.60;;
35110;SDS011;21290;50.158;8.658;2024-01-30T19:22:44;21.95;;;15.23;;
35110;SDS011;21290;50.158;8.658;2024-01-30T19:25:11;20.60;;;15.45;;
35110;SDS011;21290;50.158;8.658;2024-01-30T19:28:23;22.27;;;15.73;;
35110;SDS011;21290;50.158;8.658;2024-01-30T19:34:29;18.65;;;15.25;;
35110;SDS011;21290;50.158;8.658;2024-01-30T19:37:25;20.33;;;14.80;;
35110;SDS011;21290;50.158;8.658;2024-01-30T19:40:01;24.90;;;16.38;;
35110;SDS011;21290;50.158;8.658;2024-01-30T19:42:58;21.55;;;15.43;;
35110;SDS011;21290;50.158;8.658;2024-01-30T19:45:31;28.60;;;16.77;;
35110;SDS011;21290;50.158;8.658;2024-01-30T19:48:07;21.13;;;16.50;;
35110;SDS011;21290;50.158;8.658;2024-01-30T19:50:37;21.13;;;15.68;;
35110;SDS011;21290;50.158;8.658;2024-01-30T19:53:06;20.23;;;15.43;;
35110;SDS011;21290;50.158;8.658;2024-01-30T19:55:33;23.08;;;15.90;;
35110;SDS011;21290;50.158;8.658;2024-01-30T19:58:20;21.45;;;15.63;;
35110;SDS011;21290;50.158;8.658;2024-01-30T20:00:48;27.63;;;16.70;;
35110;SDS011;21290;50.158;8.658;2024-01-30T20:03:37;23.38;;;16.15;;
35110;SDS011;21290;50.158;8.658;2024-01-30T20:06:31;22.63;;;16.67;;
35110;SDS011;21290;50.158;8.658;2024-01-30T20:09:06;24.27;;;16.42;;
35110;SDS011;21290;50.158;8.658;2024-01-30T20:11:37;24.05;;;16.27;;
35110;SDS011;21290;50.158;8.658;2024-01-30T20:14:12;22.52;;;16.75;;
35110;SDS011;21290;50.158;8.658;2024-01-30T20:16:46;27.60;;;17.13;;
35110;SDS011;21290;50.158;8.658;2024-01-30T20:19:20;21.88;;;16.73;;
35110;SDS011;21290;50.158;8.658;2024-01-30T20:22:37;22.27;;;16.23;;
35110;SDS011;21290;50.158;8.658;2024-01-30T20:25:15;23.05;;;16.52;;
35110;SDS011;21290;50.158;8.658;2024-01-30T20:27:46;25.65;;;17.65;;
35110;SDS011;21290;50.158;8.658;2024-01-30T20:30:17;27.33;;;17.08;;
35110;SDS011;21290;50.158;8.658;2024-01-30T20:32:48;28.25;;;16.65;;
35110;SDS011;21290;50.158;8.658;2024-01-30T20:35:15;24.77;;;16.85;;
35110;SDS011;21290;50.158;8.658;2024-01-30T20:37:45;25.40;;;17.20;;
35110;SDS011;21290;50.158;8.658;2024-01-30T20:45:00;22.77;;;16.92;;
35110;SDS011;21290;50.158;8.658;2024-01-30T20:52:14;22.08;;;16.15;;
35110;SDS011;21290;50.158;8.658;2024-01-30T20:55:42;21.13;;;16.00;;
35110;SDS011;21290;50.158;8.658;2024-01-30T20:59:18;23.38;;;17.13;;
35110;SDS011;21290;50.158;8.658;2024-01-30T21:02:15;23.25;;;15.75;;
35110;SDS011;21290;50.158;8.658;2024-01-30T21:05:48;23.40;;;16.52;;
